AirNav   Pilot Hours Calculator
 
 1356 users online  

74R Horizon Airport
San Antonio, Texas, USA

GOING TO SAN ANTONIO?


FAA INFORMATION EFFECTIVE 20 MAY 2021

Location

FAA Identifier: 74R
Lat/Long: 29-17-04.5000N 098-29-53.9000W
29-17.075000N 098-29.898333W
29.2845833,-98.4983056
(estimated)
Elevation: 551 ft. / 168 m (estimated)
Variation: 07E (1985)
From city: 9 miles S of SAN ANTONIO, TX
Time zone: UTC -5 (UTC -6 during Standard Time)
Zip code: 78221

Airport Operations

Airport use: Open to the public
Activation date: 04/1945
Control tower: no
ARTCC: HOUSTON CENTER
FSS: SAN ANGELO FLIGHT SERVICE STATION
NOTAMs facility: SJT (NOTAM-D service available)
Attendance: UNATTND
Wind indicator: yes
Segmented circle: no

Airport Communications

CTAF: 122.9
WX ASOS at SSF (3 nm NE): PHONE 210-927-9391
WX ASOS at SAT (15 nm N): PHONE 210-805-5583
WX AWOS-3 at CVB (19 nm W): 119.25 (830-931-0232)
WX AWOS-3 at PEZ (20 nm S): 118.575 (830-569-5749)

Nearby radio navigation aids

VOR radial/distance  VOR name  Freq  Var
SSFr290/(3.3)STINSON VOR108.4009E
RNDr213/18.0RANDOLPH VORTAC112.3005E
SATr177/21.7SAN ANTONIO VORTAC116.8008E

 
NDB name  Hdg/Dist  Freq  Var  ID
DEVINE062/24.735907EHHH .... .... ....

Airport Services

Parking: hangars and tiedowns
Bottled oxygen: NONE
Bulk oxygen: NONE

Runway Information

Runway 11/29

Dimensions: 2360 x 80 ft. / 719 x 24 m
Surface: turf, in poor condition
RWY ROUGH & UNEVEN, NOT RGLRLY MNTND. NOT SUITABLE FOR ACFT.
RUNWAY 11  RUNWAY 29
Latitude: 29-17.161922N29-16.982842N
Longitude: 098-30.013272W098-29.618742W
Elevation: 551.0 ft.540.0 ft.
Traffic pattern: leftleft
Runway heading: 110 magnetic, 117 true290 magnetic, 297 true
Markings: nonenone
Obstructions: 30 ft. trees30 ft. trees

Runway 16/34

Dimensions: 2250 x 100 ft. / 686 x 30 m
Surface: turf, in good condition
RUNWAY 16  RUNWAY 34
Latitude: 29-17.255087N29-16.899377N
Longitude: 098-30.046423W098-29.924860W
Elevation: 551.0 ft.529.0 ft.
Traffic pattern: leftleft
Runway heading: 156 magnetic, 163 true336 magnetic, 343 true
Obstructions: 40 ft. trees40 ft. trees

Airport Ownership and Management from official FAA records

Ownership: Privately-owned
Owner: TOUDOUZE INVESTMENTS INC
PO BOX 40572
SAN ANTONIO, TX 78229
Phone (210) 859-9946
MANAGING PARTNER WILLIAM S. TOUDOUZE.
Manager: WM. TOUDOUZE
13680 PLEASANTON RD.
SAN ANTONIO, TX 78221
Phone (210) 859-9946
ALSO ARPT PHYSICAL ADDR.

Additional Remarks

RWY THRS MKD BY 3 FT WHITE CONES.
NO LINE OF SIGHT BTN RWYS 34 & 29.
WILD HOGS ON OR INVOF ARPT.
FOR CD CTC SAN ANTONIO APCH AT 210-805-5516.
NO COML FLT SVC.

Instrument Procedures

There are no published instrument procedures at 74R.

Some nearby airports with instrument procedures:

KSSF - Stinson Municipal Airport (3 nm NE)
KSKF - Kelly Field Airport (7 nm NW)
KSAT - San Antonio International Airport (15 nm N)
KRND - Randolph Air Force Base (19 nm NE)
KCVB - Castroville Municipal Airport (19 nm W)
KPEZ - Pleasanton Municipal Airport (20 nm S)
 
Loc | Ops | Rwys | IFR | FBO | Links
Com | Nav | Svcs | Stats | Notes
Area around 74R (Horizon Airport)
 
Road maps at: MapQuest Bing Google
 
Aerial photo
WARNING: Photo may not be current or correct
Aerial photo of 74R (Horizon Airport)
Photo by Bill Lux at Bull's Nest, Inc.
Photo taken 24-Oct-2013
looking east.

Do you have a better or more recent aerial photo of Horizon Airport that you would like to share? If so, please send us your photo.

 
Sectional chart

 
Airport distance calculator
Flying to Horizon Airport? Find the distance to fly.

From to 74R

Sunrise and sunset
Times for 14-Jun-2021
 Local
(UTC-5)
 Zulu
(UTC)
Morning civil twilight06:0811:08
Sunrise06:3511:35
Sunset20:3301:33
Evening civil twilight21:0102:01

Current date and time
Zulu (UTC)  14-Jun-2021 21:28:46
Local (UTC-5)  14-Jun-2021 16:28:46
 
METAR
KSSF 
3nm NE 
142053Z 09008KT 10SM CLR 37/21 A2991 RMK AO2 SLP114 T03720206 58021
KSKF 
6nm NW 
142056Z AUTO 12004KT 10SM CLR 34/23 A2992 RMK AO2 SLP124 T03420226 57021 $
KSAT 
15nm N 
142051Z 06005KT 10SM SCT065 SCT250 35/22 A2994 RMK AO2 SLP119 T03500217 58021
KRND 
18nm NE 
142056Z AUTO 12005KT 10SM CLR 35/22 A2992 RMK AO2 SLP122 T03460223 57021
KCVB 
19nm W 
141215Z AUTO 34004KT 7SM CLR 24/23 A2999 RMK AO2 T02400230
KPEZ 
20nm S 
142115Z AUTO 10004KT 10SM SCT060 36/21 A2992 RMK AO2 T03630208
TAF
KSSF 
3nm NE 
141729Z 1418/1518 08006KT P6SM SCT050 FM150400 05003KT P6SM BKN250
KSKF 
6nm NW 
141800Z 1418/1524 24008KT 9999 SCT050 QNH2990INS BECMG 1502/1503 13009KT 9999 SCT050 QNH2989INS TX36/1422Z TN24/1512Z
KSAT 
15nm N 
141729Z 1418/1524 10006KT P6SM SCT050 FM150300 VRB04KT P6SM BKN250 FM151800 07006KT P6SM SCT250
KRND 
18nm NE 
141545Z 1416/1522 10007KT 9999 FEW030 SCT250 QNH2991INS BECMG 1423/1424 VRB06KT 9999 VCSH SCT050 BKN250 QNH2989INS BECMG 1502/1503 VRB06KT 9999 NSW SCT030 BKN250 QNH2993INS BECMG 1511/1512 VRB06KT 9999 SCT010 BKN250 QNH3000INS BECMG 1516/1517 10010KT 9999 VCSH SCT030 BKN250 QNH2995INS TX35/1422Z TN24/1512Z LAST NO AMDS AFT 1424 NEXT 1510
NOTAMs
Click for the latest NOTAMs
NOTAMs are issued by the DoD/FAA and will open in a separate window not controlled by AirNav.

 

 
 

Would you like to see your business listed on this page?

 If your business provides an interesting product or service to pilots, flight crews, aircraft, or users of the Horizon Airport, you should consider listing it here.  To start the listing process, click on the button below
 
Add a business
 

Other Pages about Horizon Airport

Update a link
 
Copyright © AirNav, LLC. All rights reserved. Privacy Policy  Contact